Vandalia, Indiana
Current Conditions -  °F | °C
As of 8:53 PM on Friday 19 Dec 2014 (Local Time) from KBMG Reporting Station
Overcast Overcast  
Wind Chill: 24°   Ceiling: 2300
Heat Index: 31°   Visibility: 10mi
Dew Point: 23°   Wind: 7mph
Humidity: 72%   Direction: 80°E
Pressure: 30.26"   Gusts: NA
Location:  39.3008°N, 86.8112°W
Report Text: KBMG 200153Z 08006KT 10SM OVC023 M01/M05 A3026 RMK AO2 PRESFR SLP256 T10061050
Loading
Personal Weather Stations






























Interactive Weather Map New forecast layout! Learn more

10-Day Weather Forecast

Advertisements
Track Severe Weather on mobile